createdAt,value
2018-10-01T00:00:11.705Z,6.20
2018-10-01T00:02:41.871Z,6.37
2018-10-01T00:05:10.679Z,6.60
2018-10-01T00:07:39.518Z,6.87
2018-10-01T00:10:08.343Z,7.50
2018-10-01T00:12:37.171Z,7.80
2018-10-01T00:15:06.090Z,7.10
2018-10-01T00:17:34.915Z,6.60
2018-10-01T00:20:09.473Z,6.70
2018-10-01T00:22:48.512Z,6.53
2018-10-01T00:25:17.790Z,5.83
2018-10-01T00:27:47.066Z,6.73
2018-10-01T00:30:15.835Z,6.73
2018-10-01T00:32:44.656Z,6.63
2018-10-01T00:35:13.466Z,6.30
2018-10-01T00:37:42.392Z,6.93
2018-10-01T00:40:11.225Z,6.23
2018-10-01T00:42:40.043Z,7.20
2018-10-01T00:45:09.100Z,6.97
2018-10-01T00:47:37.925Z,6.50
2018-10-01T00:50:06.895Z,6.33
2018-10-01T00:52:35.675Z,5.87
2018-10-01T00:55:04.580Z,6.83
2018-10-01T00:57:33.392Z,6.30
2018-10-01T01:00:02.278Z,5.80
2018-10-01T01:02:31.095Z,6.47
2018-10-01T01:05:00.014Z,6.07
2018-10-01T01:07:28.807Z,6.63
2018-10-01T01:09:57.639Z,7.03
2018-10-01T01:12:26.467Z,7.03
2018-10-01T01:14:55.281Z,5.37
2018-10-01T01:17:24.107Z,6.70
2018-10-01T01:19:53.064Z,6.43
2018-10-01T01:22:21.877Z,5.97
2018-10-01T01:24:50.706Z,7.07
2018-10-01T01:27:19.559Z,7.17
2018-10-01T01:29:48.475Z,6.43
2018-10-01T01:32:17.299Z,5.90
2018-10-01T01:34:46.218Z,6.37
2018-10-01T01:37:15.051Z,6.77
2018-10-01T01:39:44.203Z,7.20
2018-10-01T01:42:13.043Z,7.80
2018-10-01T01:44:41.848Z,5.47
2018-10-01T01:47:10.769Z,6.57
2018-10-01T01:49:39.607Z,6.27
2018-10-01T01:52:08.431Z,6.77
2018-10-01T01:54:37.345Z,6.00
2018-10-01T01:57:06.262Z,8.10
2018-10-01T01:59:35.139Z,6.60
2018-10-01T02:02:03.959Z,6.80
2018-10-01T02:04:32.794Z,6.63
2018-10-01T02:07:01.603Z,5.83
2018-10-01T02:09:30.582Z,6.10
2018-10-01T02:11:59.390Z,7.10
2018-10-01T02:14:28.201Z,6.40
2018-10-01T02:16:57.024Z,6.07
2018-10-01T02:19:25.911Z,7.00
2018-10-01T02:21:54.731Z,5.90
2018-10-01T02:24:23.542Z,6.03
2018-10-01T02:26:52.351Z,6.43
2018-10-01T02:29:21.242Z,6.13
2018-10-01T02:31:50.059Z,5.90
2018-10-01T02:34:18.890Z,6.77
2018-10-01T02:36:47.712Z,5.57
2018-10-01T02:39:16.614Z,6.40
2018-10-01T02:41:45.422Z,5.23
2018-10-01T02:44:14.231Z,6.30
2018-10-01T02:46:43.026Z,5.97
2018-10-01T02:49:11.938Z,6.17
2018-10-01T02:51:46.468Z,6.23
2018-10-01T02:54:20.875Z,7.50
2018-10-01T02:56:49.703Z,7.33
2018-10-01T02:59:27.110Z,6.00
2018-10-01T03:01:56.018Z,6.30
2018-10-01T03:04:25.203Z,6.60
2018-10-01T03:06:54.039Z,5.80
2018-10-01T03:09:22.955Z,5.97
2018-10-01T03:11:51.771Z,6.30
2018-10-01T03:14:20.591Z,6.07
2018-10-01T03:16:49.410Z,6.10
2018-10-01T03:19:18.299Z,6.23
2018-10-01T03:21:47.102Z,5.10
2018-10-01T03:24:15.922Z,6.43
2018-10-01T03:26:44.704Z,5.23
2018-10-01T03:29:13.558Z,7.97
2018-10-01T03:31:42.372Z,6.27
2018-10-01T03:34:11.215Z,5.80
2018-10-01T03:36:40.019Z,5.77
2018-10-01T03:39:09.586Z,5.83
2018-10-01T03:41:38.870Z,9.20
2018-10-01T03:44:07.959Z,6.30
2018-10-01T03:46:36.759Z,6.23
2018-10-01T03:49:05.636Z,6.57
2018-10-01T03:51:34.533Z,7.17
2018-10-01T03:54:03.446Z,5.47
2018-10-01T03:56:32.254Z,6.40
2018-10-01T03:59:01.175Z,6.10
2018-10-01T04:01:29.975Z,5.30
2018-10-01T04:03:58.818Z,5.03
2018-10-01T04:06:27.654Z,5.27
2018-10-01T04:08:56.626Z,9.33
2018-10-01T04:11:25.368Z,6.30
2018-10-01T04:13:54.163Z,6.90
2018-10-01T04:16:23.950Z,6.57
2018-10-01T04:18:52.802Z,6.40
2018-10-01T04:21:21.724Z,5.60
2018-10-01T04:23:50.514Z,5.27
2018-10-01T04:26:19.356Z,6.00
2018-10-01T04:28:48.255Z,6.03
2018-10-01T04:31:17.109Z,8.10
2018-10-01T04:33:45.915Z,6.80
2018-10-01T04:36:14.707Z,5.93
2018-10-01T04:38:43.523Z,6.97
2018-10-01T04:41:12.325Z,6.10
2018-10-01T04:43:41.186Z,5.40
2018-10-01T04:46:09.989Z,6.43
2018-10-01T04:48:38.998Z,6.20
2018-10-01T04:51:07.800Z,6.57
2018-10-01T04:53:36.620Z,6.17
2018-10-01T04:56:05.510Z,6.07
2018-10-01T04:58:34.443Z,7.37
2018-10-01T05:01:03.267Z,6.33
2018-10-01T05:03:32.075Z,7.63
2018-10-01T05:06:00.911Z,6.37
2018-10-01T05:08:29.791Z,7.90
2018-10-01T05:10:58.606Z,8.13
2018-10-01T05:13:27.443Z,7.13
2018-10-01T05:15:56.234Z,8.00
2018-10-01T05:18:25.047Z,7.97
2018-10-01T05:20:54.292Z,8.23
2018-10-01T05:23:23.164Z,9.37
2018-10-01T05:25:52.091Z,9.10
2018-10-01T05:28:20.935Z,12.33
2018-10-01T05:30:49.843Z,8.70
2018-10-01T05:33:18.637Z,7.23
2018-10-01T05:35:47.436Z,7.20
2018-10-01T05:38:16.279Z,8.67
2018-10-01T05:40:45.088Z,12.60
2018-10-01T05:43:13.898Z,8.97
2018-10-01T05:45:42.700Z,12.20
2018-10-01T05:48:11.526Z,8.80
2018-10-01T05:50:40.338Z,9.40
2018-10-01T05:53:09.164Z,8.20
2018-10-01T05:55:38.050Z,9.73
2018-10-01T05:58:06.923Z,9.10
2018-10-01T06:00:35.715Z,8.87
2018-10-01T06:03:04.535Z,8.00
2018-10-01T06:05:33.995Z,11.43
2018-10-01T06:08:02.910Z,8.90
2018-10-01T06:10:31.718Z,8.30
2018-10-01T06:13:00.532Z,8.27
2018-10-01T06:15:29.390Z,9.47
2018-10-01T06:17:58.228Z,10.17
2018-10-01T06:20:27.607Z,10.23
2018-10-01T06:22:56.547Z,9.93
2018-10-01T06:25:25.747Z,9.00
2018-10-01T06:27:55.056Z,9.80
2018-10-01T06:30:23.942Z,9.67
2018-10-01T06:32:53.773Z,10.00
2018-10-01T06:35:22.853Z,10.67
2018-10-01T06:37:51.785Z,9.97
2018-10-01T06:40:20.773Z,9.80
2018-10-01T06:42:49.570Z,9.90
2018-10-01T06:45:18.397Z,11.00
2018-10-01T06:47:47.270Z,12.57
2018-10-01T06:50:16.123Z,9.93
2018-10-01T06:52:45.626Z,10.50
2018-10-01T06:55:14.467Z,12.10
2018-10-01T06:57:43.355Z,9.97
2018-10-01T07:00:16.334Z,10.77
2018-10-01T07:02:45.206Z,10.83
2018-10-01T07:05:14.049Z,11.13
2018-10-01T07:07:42.951Z,10.03
2018-10-01T07:10:11.806Z,10.67
2018-10-01T07:12:40.590Z,10.93
2018-10-01T07:15:09.443Z,10.33
2018-10-01T07:17:38.242Z,9.47
2018-10-01T07:20:07.259Z,10.50
2018-10-01T07:22:36.143Z,10.43
2018-10-01T07:25:05.023Z,10.40
2018-10-01T07:27:33.865Z,14.97
2018-10-01T07:30:02.847Z,10.40
2018-10-01T07:32:31.698Z,9.83
2018-10-01T07:35:00.485Z,10.30
2018-10-01T07:37:29.298Z,9.27
2018-10-01T07:39:58.174Z,11.50
2018-10-01T07:42:26.991Z,10.07
2018-10-01T07:44:55.847Z,11.17
2018-10-01T07:47:24.619Z,10.50
2018-10-01T07:49:53.540Z,11.57
2018-10-01T07:52:22.355Z,15.47
2018-10-01T07:54:51.168Z,10.20
2018-10-01T07:57:20.026Z,9.10
2018-10-01T07:59:49.071Z,9.33
2018-10-01T08:02:17.733Z,8.57
2018-10-01T08:04:47.994Z,10.10
2018-10-01T08:07:16.800Z,9.27
2018-10-01T08:09:45.671Z,11.30
2018-10-01T08:12:14.735Z,11.20
2018-10-01T08:14:43.524Z,9.43
2018-10-01T08:17:12.402Z,9.60
2018-10-01T08:19:41.252Z,9.63
2018-10-01T08:22:10.072Z,10.77
2018-10-01T08:24:38.910Z,10.60
2018-10-01T08:27:07.732Z,9.47
2018-10-01T08:29:36.752Z,10.70
2018-10-01T08:32:05.774Z,9.70
2018-10-01T08:34:34.854Z,10.10
2018-10-01T08:37:03.704Z,8.80
2018-10-01T08:39:32.583Z,9.50
2018-10-01T08:42:02.278Z,10.17
2018-10-01T08:44:31.225Z,10.53
2018-10-01T08:47:00.116Z,9.73
2018-10-01T08:49:38.019Z,10.93
2018-10-01T08:52:10.871Z,10.33
2018-10-01T08:54:42.128Z,10.13
2018-10-01T08:57:10.976Z,9.37
2018-10-01T08:59:39.903Z,9.70
2018-10-01T09:02:20.763Z,11.30
2018-10-01T09:04:49.564Z,10.77
2018-10-01T09:07:18.423Z,9.63
2018-10-01T09:09:47.338Z,7.77
2018-10-01T09:12:16.177Z,10.30
2018-10-01T09:14:45.220Z,9.13
2018-10-01T09:17:13.917Z,10.17
2018-10-01T09:19:42.946Z,11.53
2018-10-01T09:22:11.880Z,9.27
2018-10-01T09:24:40.723Z,8.80
2018-10-01T09:27:09.563Z,8.27
2018-10-01T09:29:38.522Z,12.67
2018-10-01T09:32:07.513Z,11.27
2018-10-01T09:34:36.387Z,10.80
2018-10-01T09:37:05.255Z,15.60
2018-10-01T09:39:34.167Z,12.83
2018-10-01T09:42:03.037Z,14.77
2018-10-01T09:44:31.862Z,12.83
2018-10-01T09:47:00.779Z,10.60
2018-10-01T09:49:29.686Z,13.97
2018-10-01T09:51:58.583Z,16.40
2018-10-01T09:54:27.665Z,19.90
2018-10-01T09:56:57.151Z,14.63
2018-10-01T09:59:28.480Z,13.90
2018-10-01T10:01:57.416Z,9.17
2018-10-01T10:04:26.286Z,9.10
2018-10-01T10:06:55.127Z,7.63
2018-10-01T10:09:24.056Z,12.20
2018-10-01T10:11:52.892Z,13.43
2018-10-01T10:14:21.723Z,10.80
2018-10-01T10:16:50.614Z,11.53
2018-10-01T10:19:19.447Z,10.00
2018-10-01T10:21:48.275Z,10.77
2018-10-01T10:24:17.078Z,16.07
2018-10-01T10:26:45.880Z,9.40
2018-10-01T10:29:14.835Z,9.60
2018-10-01T10:31:43.906Z,10.00
2018-10-01T10:34:12.724Z,11.77
2018-10-01T10:36:41.542Z,13.10
2018-10-01T10:39:12.011Z,12.10
2018-10-01T10:41:41.457Z,9.37
2018-10-01T10:44:10.348Z,10.50
2018-10-01T10:46:39.107Z,8.83
2018-10-01T10:49:08.003Z,9.13
2018-10-01T10:51:36.835Z,9.33
2018-10-01T10:54:05.899Z,10.03
2018-10-01T10:56:34.764Z,13.83
2018-10-01T10:59:03.670Z,9.40
2018-10-01T11:01:32.763Z,11.03
2018-10-01T11:04:01.579Z,12.83
2018-10-01T11:06:30.402Z,8.57
2018-10-01T11:08:59.297Z,8.00
2018-10-01T11:11:28.114Z,11.33
2018-10-01T11:13:56.980Z,16.80
2018-10-01T11:16:25.733Z,11.47
2018-10-01T11:18:54.673Z,9.97
2018-10-01T11:21:23.505Z,13.53
2018-10-01T11:23:52.197Z,14.40
2018-10-01T11:26:21.003Z,8.97
2018-10-01T11:28:50.031Z,9.40
2018-10-01T11:31:18.886Z,12.20
2018-10-01T11:33:47.658Z,8.90
2018-10-01T11:36:16.494Z,7.90
2018-10-01T11:38:45.379Z,8.93
2018-10-01T11:41:14.271Z,10.73
2018-10-01T11:43:43.188Z,11.80
2018-10-01T11:46:12.062Z,11.50
2018-10-01T11:48:41.035Z,8.63
2018-10-01T11:51:09.854Z,8.57
2018-10-01T11:53:38.695Z,9.90
2018-10-01T11:56:07.591Z,8.53
2018-10-01T11:58:36.524Z,7.87
2018-10-01T12:01:05.412Z,8.63
2018-10-01T12:03:34.314Z,9.87
2018-10-01T12:06:03.093Z,8.50
2018-10-01T12:08:31.934Z,9.40
2018-10-01T12:11:00.763Z,8.70
2018-10-01T12:13:29.598Z,8.33
2018-10-01T12:15:58.498Z,8.00
2018-10-01T12:18:27.353Z,7.67
2018-10-01T12:20:56.179Z,8.60
2018-10-01T12:23:25.155Z,8.10
2018-10-01T12:25:53.971Z,8.13
2018-10-01T12:28:22.880Z,8.00
2018-10-01T12:30:51.694Z,10.30
2018-10-01T12:33:20.596Z,8.53
2018-10-01T12:35:49.352Z,8.83
2018-10-01T12:38:18.270Z,8.83
2018-10-01T12:40:46.998Z,8.30
2018-10-01T12:43:15.898Z,9.23
2018-10-01T12:45:44.761Z,7.63
2018-10-01T12:48:13.582Z,8.40
2018-10-01T12:50:42.371Z,8.97
2018-10-01T12:53:11.178Z,7.93
2018-10-01T12:55:40.096Z,8.27
2018-10-01T12:58:09.023Z,7.77
2018-10-01T13:00:37.870Z,9.27
2018-10-01T13:03:07.022Z,7.63
2018-10-01T13:05:35.870Z,9.53
2018-10-01T13:08:04.743Z,7.20
2018-10-01T13:10:33.606Z,6.83
2018-10-01T13:13:02.452Z,7.47
2018-10-01T13:15:31.274Z,7.67
2018-10-01T13:18:00.271Z,11.97
2018-10-01T13:20:29.092Z,7.37
2018-10-01T13:22:57.958Z,7.33
2018-10-01T13:25:26.743Z,8.47
2018-10-01T13:27:55.672Z,9.07
2018-10-01T13:30:24.751Z,6.17
2018-10-01T13:32:53.407Z,7.03
2018-10-01T13:35:22.225Z,7.07
2018-10-01T13:37:51.245Z,7.83
2018-10-01T13:40:20.095Z,10.63
2018-10-01T13:42:49.027Z,11.27
2018-10-01T13:45:17.757Z,9.73
2018-10-01T13:47:47.014Z,11.67
2018-10-01T13:50:16.535Z,10.17
2018-10-01T13:52:45.435Z,14.17
2018-10-01T13:55:14.280Z,9.00
2018-10-01T13:57:43.115Z,9.67
2018-10-01T14:00:16.129Z,9.80
2018-10-01T14:02:45.346Z,8.73
2018-10-01T14:05:14.238Z,8.77
2018-10-01T14:07:43.176Z,11.70
2018-10-01T14:10:12.028Z,10.37
2018-10-01T14:12:41.410Z,9.37
2018-10-01T14:15:10.306Z,12.27
2018-10-01T14:17:39.143Z,11.10
2018-10-01T14:20:08.180Z,12.87
2018-10-01T14:22:36.875Z,10.87
2018-10-01T14:25:05.867Z,12.57
2018-10-01T14:27:34.590Z,13.20
2018-10-01T14:30:03.555Z,11.80
2018-10-01T14:32:32.399Z,10.37
2018-10-01T14:35:01.270Z,10.87
2018-10-01T14:37:30.164Z,10.53
2018-10-01T14:39:59.015Z,10.27
2018-10-01T14:42:28.478Z,11.20
2018-10-01T14:44:57.294Z,12.87
2018-10-01T14:47:26.088Z,12.17
2018-10-01T14:49:54.887Z,10.10
2018-10-01T14:52:23.747Z,10.10
2018-10-01T14:54:52.907Z,10.13
2018-10-01T14:57:22.426Z,12.30
2018-10-01T14:59:51.352Z,9.80
2018-10-01T15:02:20.168Z,9.63
2018-10-01T15:04:49.006Z,10.57
2018-10-01T15:07:17.852Z,10.13
2018-10-01T15:09:46.718Z,10.80
2018-10-01T15:12:15.651Z,10.07
2018-10-01T15:14:44.419Z,11.23
2018-10-01T15:17:13.219Z,10.17
2018-10-01T15:19:42.059Z,8.17
2018-10-01T15:22:10.912Z,9.90
2018-10-01T15:24:40.196Z,8.50
2018-10-01T15:27:09.300Z,8.23
2018-10-01T15:29:38.225Z,8.80
2018-10-01T15:32:07.077Z,10.10
2018-10-01T15:34:35.975Z,10.13
2018-10-01T15:37:04.851Z,8.67
2018-10-01T15:39:33.725Z,9.60
2018-10-01T15:42:02.658Z,12.07
2018-10-01T15:44:31.446Z,14.60
2018-10-01T15:47:00.807Z,11.87
2018-10-01T15:49:29.715Z,11.33
2018-10-01T15:51:58.552Z,13.17
2018-10-01T15:54:27.488Z,12.43
2018-10-01T15:56:56.311Z,11.97
2018-10-01T15:59:27.854Z,15.93
2018-10-01T16:01:56.724Z,12.20
2018-10-01T16:04:25.608Z,12.47
2018-10-01T16:06:54.486Z,14.60
2018-10-01T16:09:23.396Z,12.93
2018-10-01T16:11:53.126Z,15.50
2018-10-01T16:14:21.963Z,15.47
2018-10-01T16:16:50.876Z,14.60
2018-10-01T16:19:19.728Z,15.53
2018-10-01T16:21:48.599Z,13.17
2018-10-01T16:24:17.401Z,11.63
2018-10-01T16:26:46.219Z,15.87
2018-10-01T16:29:15.128Z,11.40
2018-10-01T16:31:43.947Z,12.33
2018-10-01T16:34:12.772Z,12.50
2018-10-01T16:36:41.588Z,12.00
2018-10-01T16:39:11.958Z,11.60
2018-10-01T16:41:40.754Z,16.37
2018-10-01T16:44:09.679Z,13.10
2018-10-01T16:46:38.627Z,13.30
2018-10-01T16:49:07.620Z,12.63
2018-10-01T16:51:36.458Z,11.87
2018-10-01T16:54:05.298Z,13.33
2018-10-01T16:56:34.083Z,12.60
2018-10-01T16:59:02.950Z,12.67
2018-10-01T17:01:31.822Z,11.70
2018-10-01T17:04:00.648Z,12.37
2018-10-01T17:06:30.891Z,13.57
2018-10-01T17:09:00.060Z,12.17
2018-10-01T17:11:29.271Z,14.23
2018-10-01T17:13:58.183Z,12.57
2018-10-01T17:16:26.990Z,14.20
2018-10-01T17:18:55.916Z,11.07
2018-10-01T17:21:24.745Z,12.40
2018-10-01T17:23:53.570Z,12.60
2018-10-01T17:26:22.372Z,11.73
2018-10-01T17:28:51.276Z,13.87
2018-10-01T17:31:20.187Z,12.47
2018-10-01T17:33:49.119Z,13.37
2018-10-01T17:36:18.873Z,12.90
2018-10-01T17:38:47.994Z,15.40
2018-10-01T17:41:16.827Z,14.57
2018-10-01T17:43:45.652Z,16.90
2018-10-01T17:46:14.499Z,16.47
2018-10-01T17:48:43.471Z,25.80
2018-10-01T17:51:13.042Z,19.33
2018-10-01T17:53:41.821Z,22.07
2018-10-01T17:56:10.668Z,22.17
2018-10-01T17:58:39.924Z,20.13
2018-10-01T18:01:09.142Z,20.70
2018-10-01T18:03:37.955Z,22.10
2018-10-01T18:06:06.823Z,19.73
2018-10-01T18:08:35.674Z,19.87
2018-10-01T18:11:04.510Z,22.70
2018-10-01T18:13:33.326Z,22.83
2018-10-01T18:16:02.191Z,22.33
2018-10-01T18:18:31.047Z,23.00
2018-10-01T18:20:59.873Z,21.87
2018-10-01T18:23:28.716Z,21.77
2018-10-01T18:25:57.552Z,23.83
2018-10-01T18:28:27.157Z,21.63
2018-10-01T18:30:56.910Z,23.40
2018-10-01T18:33:25.738Z,21.60
2018-10-01T18:35:54.655Z,20.20
2018-10-01T18:38:24.071Z,20.70
2018-10-01T18:40:53.293Z,21.30
2018-10-01T18:43:22.134Z,21.37
2018-10-01T18:45:50.959Z,21.53
2018-10-01T18:48:19.967Z,21.40
2018-10-01T18:50:48.828Z,20.43
2018-10-01T18:53:18.264Z,24.20
2018-10-01T18:55:47.457Z,20.43
2018-10-01T18:58:16.394Z,21.77
2018-10-01T19:00:45.527Z,20.10
2018-10-01T19:03:15.251Z,20.70
2018-10-01T19:05:44.111Z,20.97
2018-10-01T19:08:13.428Z,22.17
2018-10-01T19:10:42.290Z,22.30
2018-10-01T19:13:11.602Z,23.30
2018-10-01T19:15:41.403Z,22.30
2018-10-01T19:18:11.126Z,23.90
2018-10-01T19:20:41.240Z,22.50
2018-10-01T19:23:10.843Z,32.47
2018-10-01T19:25:40.328Z,25.57
2018-10-01T19:28:09.628Z,24.63
2018-10-01T19:30:39.844Z,22.97
2018-10-01T19:33:11.194Z,21.03
2018-10-01T19:35:40.767Z,19.97
2018-10-01T19:38:10.811Z,23.23
2018-10-01T19:40:41.229Z,20.17
2018-10-01T19:43:10.435Z,19.40
2018-10-01T19:45:40.176Z,19.37
2018-10-01T19:48:09.843Z,19.13
2018-10-01T19:50:39.937Z,19.90
2018-10-01T19:53:08.849Z,22.03
2018-10-01T19:55:37.712Z,22.63
2018-10-01T19:58:06.686Z,22.27
2018-10-01T20:00:35.611Z,22.47
2018-10-01T20:03:05.101Z,21.67
2018-10-01T20:05:33.948Z,20.53
2018-10-01T20:08:03.029Z,20.57
2018-10-01T20:10:31.887Z,20.60
2018-10-01T20:13:00.707Z,20.17
2018-10-01T20:15:29.519Z,19.07
2018-10-01T20:17:58.484Z,20.37
2018-10-01T20:20:27.306Z,20.70
2018-10-01T20:22:56.136Z,18.80
2018-10-01T20:25:24.958Z,20.87
2018-10-01T20:27:54.488Z,20.77
2018-10-01T20:30:23.442Z,19.63
2018-10-01T20:32:52.110Z,21.50
2018-10-01T20:35:20.976Z,22.67
2018-10-01T20:37:49.831Z,20.63
2018-10-01T20:40:18.685Z,22.90
2018-10-01T20:42:47.505Z,22.77
2018-10-01T20:45:16.346Z,22.33
2018-10-01T20:47:45.243Z,20.07
2018-10-01T20:50:14.069Z,22.57
2018-10-01T20:52:43.057Z,22.67
2018-10-01T20:55:11.903Z,20.80
2018-10-01T20:57:40.752Z,20.30
2018-10-01T21:00:11.125Z,22.30
2018-10-01T21:02:40.243Z,21.43
2018-10-01T21:05:09.091Z,21.10
2018-10-01T21:07:37.903Z,21.20
2018-10-01T21:10:06.875Z,20.70
2018-10-01T21:12:35.687Z,23.37
2018-10-01T21:15:04.633Z,23.00
2018-10-01T21:17:33.491Z,21.20
2018-10-01T21:20:02.988Z,17.50
2018-10-01T21:22:31.895Z,16.13
2018-10-01T21:25:00.670Z,14.97
2018-10-01T21:27:29.563Z,13.70
2018-10-01T21:29:58.427Z,13.20
2018-10-01T21:32:27.231Z,12.97
2018-10-01T21:34:56.049Z,14.03
2018-10-01T21:37:24.850Z,12.30
2018-10-01T21:40:10.136Z,12.00
2018-10-01T21:42:39.026Z,10.90
2018-10-01T21:45:08.699Z,12.10
2018-10-01T21:47:37.526Z,10.60
2018-10-01T21:50:06.467Z,11.37
2018-10-01T21:52:35.261Z,10.73
2018-10-01T21:55:04.384Z,10.70
2018-10-01T21:57:33.191Z,11.97
2018-10-01T22:00:02.058Z,10.53
2018-10-01T22:02:30.896Z,9.73
2018-10-01T22:04:59.732Z,10.10
2018-10-01T22:07:28.559Z,9.07
2018-10-01T22:09:57.502Z,10.27
2018-10-01T22:12:26.323Z,9.30
2018-10-01T22:14:55.127Z,9.23
2018-10-01T22:17:24.070Z,10.53
2018-10-01T22:19:52.939Z,9.10
2018-10-01T22:22:21.870Z,9.13
2018-10-01T22:24:50.683Z,9.20
2018-10-01T22:27:19.499Z,9.27
2018-10-01T22:29:48.406Z,8.70
2018-10-01T22:32:17.209Z,9.03
2018-10-01T22:34:46.039Z,8.57
2018-10-01T22:37:14.843Z,8.17
2018-10-01T22:39:43.755Z,9.13
2018-10-01T22:42:12.579Z,9.77
2018-10-01T22:44:41.399Z,10.03
2018-10-01T22:47:10.228Z,10.70
2018-10-01T22:49:39.101Z,9.40
2018-10-01T22:52:07.935Z,9.50
2018-10-01T22:54:36.751Z,8.77
2018-10-01T22:57:05.584Z,8.87
2018-10-01T22:59:34.466Z,8.77
2018-10-01T23:02:03.294Z,8.27
2018-10-01T23:04:32.091Z,9.83
2018-10-01T23:07:00.887Z,8.60
2018-10-01T23:09:29.727Z,8.90
2018-10-01T23:11:58.577Z,7.60
2018-10-01T23:14:27.403Z,9.20
2018-10-01T23:16:56.174Z,7.43
2018-10-01T23:19:25.178Z,7.63
2018-10-01T23:21:53.978Z,7.70
2018-10-01T23:24:22.782Z,7.80
2018-10-01T23:26:51.627Z,6.77
2018-10-01T23:29:20.611Z,7.63
2018-10-01T23:31:49.456Z,8.07
2018-10-01T23:34:18.259Z,7.87
2018-10-01T23:36:47.062Z,8.33
2018-10-01T23:39:15.895Z,8.10
2018-10-01T23:41:44.708Z,7.70
2018-10-01T23:44:13.498Z,7.80
2018-10-01T23:46:42.523Z,11.27
2018-10-01T23:49:11.358Z,7.83
2018-10-01T23:51:40.179Z,8.20
2018-10-01T23:54:08.975Z,7.17
2018-10-01T23:56:37.752Z,8.27
2018-10-01T23:59:09.650Z,7.53
